sensor_id;sensor_type;location;lat;lon;timestamp;P1;durP1;ratioP1;P2;durP2;ratioP2
23123;SDS011;11731;48.592;8.858;2023-05-10T00:02:52;0.60;;;0.60;;
23123;SDS011;11731;48.592;8.858;2023-05-10T00:09:10;0.70;;;0.70;;
23123;SDS011;11731;48.592;8.858;2023-05-10T00:11:37;1.40;;;0.50;;
23123;SDS011;11731;48.592;8.858;2023-05-10T00:14:05;0.50;;;0.50;;
23123;SDS011;11731;48.592;8.858;2023-05-10T00:16:32;1.17;;;0.57;;
23123;SDS011;11731;48.592;8.858;2023-05-10T00:18:59;1.67;;;0.53;;
23123;SDS011;11731;48.592;8.858;2023-05-10T00:21:26;0.50;;;0.50;;
23123;SDS011;11731;48.592;8.858;2023-05-10T00:23:53;0.50;;;0.40;;
23123;SDS011;11731;48.592;8.858;2023-05-10T00:26:37;0.40;;;0.40;;
23123;SDS011;11731;48.592;8.858;2023-05-10T00:29:28;1.90;;;0.60;;
23123;SDS011;11731;48.592;8.858;2023-05-10T00:31:55;1.47;;;0.60;;
23123;SDS011;11731;48.592;8.858;2023-05-10T00:34:21;1.63;;;0.40;;
23123;SDS011;11731;48.592;8.858;2023-05-10T00:40:06;0.60;;;0.60;;
23123;SDS011;11731;48.592;8.858;2023-05-10T00:42:33;0.80;;;0.53;;
23123;SDS011;11731;48.592;8.858;2023-05-10T00:45:02;1.77;;;0.50;;
23123;SDS011;11731;48.592;8.858;2023-05-10T00:47:29;0.73;;;0.47;;
23123;SDS011;11731;48.592;8.858;2023-05-10T00:49:57;0.97;;;0.43;;
23123;SDS011;11731;48.592;8.858;2023-05-10T00:52:25;0.60;;;0.30;;
23123;SDS011;11731;48.592;8.858;2023-05-10T00:54:52;2.53;;;0.40;;
23123;SDS011;11731;48.592;8.858;2023-05-10T00:57:20;0.23;;;0.23;;
23123;SDS011;11731;48.592;8.858;2023-05-10T00:59:53;0.97;;;0.40;;
23123;SDS011;11731;48.592;8.858;2023-05-10T01:02:21;1.40;;;0.20;;
23123;SDS011;11731;48.592;8.858;2023-05-10T01:04:48;0.33;;;0.33;;
23123;SDS011;11731;48.592;8.858;2023-05-10T01:07:15;2.00;;;0.60;;
23123;SDS011;11731;48.592;8.858;2023-05-10T01:09:42;2.97;;;0.40;;
23123;SDS011;11731;48.592;8.858;2023-05-10T01:12:09;0.40;;;0.40;;
23123;SDS011;11731;48.592;8.858;2023-05-10T01:14:38;0.30;;;0.30;;
23123;SDS011;11731;48.592;8.858;2023-05-10T01:18:19;1.47;;;0.40;;
23123;SDS011;11731;48.592;8.858;2023-05-10T01:20:35;0.63;;;0.50;;
23123;SDS011;11731;48.592;8.858;2023-05-10T01:23:29;0.67;;;0.40;;
23123;SDS011;11731;48.592;8.858;2023-05-10T01:26:30;0.23;;;0.23;;
23123;SDS011;11731;48.592;8.858;2023-05-10T01:29:32;0.43;;;0.40;;
23123;SDS011;11731;48.592;8.858;2023-05-10T01:32:28;0.40;;;0.40;;
23123;SDS011;11731;48.592;8.858;2023-05-10T01:35:19;5.57;;;0.40;;
23123;SDS011;11731;48.592;8.858;2023-05-10T01:38:57;0.50;;;0.50;;
23123;SDS011;11731;48.592;8.858;2023-05-10T01:41:03;5.17;;;0.40;;
23123;SDS011;11731;48.592;8.858;2023-05-10T01:44:02;0.40;;;0.40;;
23123;SDS011;11731;48.592;8.858;2023-05-10T01:46:36;0.30;;;0.30;;
23123;SDS011;11731;48.592;8.858;2023-05-10T01:55:05;1.43;;;0.40;;
23123;SDS011;11731;48.592;8.858;2023-05-10T01:57:35;0.50;;;0.50;;
23123;SDS011;11731;48.592;8.858;2023-05-10T02:00:04;0.60;;;0.60;;
23123;SDS011;11731;48.592;8.858;2023-05-10T02:02:36;0.43;;;0.43;;
23123;SDS011;11731;48.592;8.858;2023-05-10T02:05:04;2.23;;;0.63;;
23123;SDS011;11731;48.592;8.858;2023-05-10T02:07:33;0.40;;;0.40;;
23123;SDS011;11731;48.592;8.858;2023-05-10T02:10:04;0.50;;;0.50;;
23123;SDS011;11731;48.592;8.858;2023-05-10T02:12:33;0.70;;;0.70;;
23123;SDS011;11731;48.592;8.858;2023-05-10T02:15:02;0.93;;;0.50;;
23123;SDS011;11731;48.592;8.858;2023-05-10T02:17:31;0.47;;;0.47;;
23123;SDS011;11731;48.592;8.858;2023-05-10T02:20:48;1.77;;;0.70;;
23123;SDS011;11731;48.592;8.858;2023-05-10T02:23:31;0.70;;;0.70;;
23123;SDS011;11731;48.592;8.858;2023-05-10T02:26:01;0.63;;;0.63;;
23123;SDS011;11731;48.592;8.858;2023-05-10T02:28:30;0.90;;;0.90;;
23123;SDS011;11731;48.592;8.858;2023-05-10T02:31:09;1.50;;;1.40;;
23123;SDS011;11731;48.592;8.858;2023-05-10T02:33:42;3.37;;;3.07;;
23123;SDS011;11731;48.592;8.858;2023-05-10T02:36:11;1.60;;;1.50;;
23123;SDS011;11731;48.592;8.858;2023-05-10T02:39:07;1.20;;;1.00;;
23123;SDS011;11731;48.592;8.858;2023-05-10T02:41:40;2.97;;;1.10;;
23123;SDS011;11731;48.592;8.858;2023-05-10T02:44:08;0.80;;;0.80;;
23123;SDS011;11731;48.592;8.858;2023-05-10T02:46:35;3.90;;;0.70;;
23123;SDS011;11731;48.592;8.858;2023-05-10T02:49:20;1.53;;;0.60;;
23123;SDS011;11731;48.592;8.858;2023-05-10T02:53:54;0.87;;;0.87;;
23123;SDS011;11731;48.592;8.858;2023-05-10T02:55:12;0.60;;;0.60;;
23123;SDS011;11731;48.592;8.858;2023-05-10T02:57:46;1.53;;;0.90;;
23123;SDS011;11731;48.592;8.858;2023-05-10T03:00:18;1.30;;;0.73;;
23123;SDS011;11731;48.592;8.858;2023-05-10T03:02:45;0.83;;;0.80;;
23123;SDS011;11731;48.592;8.858;2023-05-10T03:05:12;1.00;;;0.90;;
23123;SDS011;11731;48.592;8.858;2023-05-10T03:07:39;0.80;;;0.80;;
23123;SDS011;11731;48.592;8.858;2023-05-10T03:10:06;0.97;;;0.93;;
23123;SDS011;11731;48.592;8.858;2023-05-10T03:12:41;1.10;;;1.00;;
23123;SDS011;11731;48.592;8.858;2023-05-10T03:22:14;1.80;;;0.90;;
23123;SDS011;11731;48.592;8.858;2023-05-10T03:24:48;1.37;;;0.87;;
23123;SDS011;11731;48.592;8.858;2023-05-10T03:29:52;0.80;;;0.80;;
23123;SDS011;11731;48.592;8.858;2023-05-10T03:32:20;1.10;;;1.00;;
23123;SDS011;11731;48.592;8.858;2023-05-10T03:35:16;2.23;;;0.97;;
23123;SDS011;11731;48.592;8.858;2023-05-10T03:37:42;1.43;;;1.00;;
23123;SDS011;11731;48.592;8.858;2023-05-10T03:40:10;0.90;;;0.90;;
23123;SDS011;11731;48.592;8.858;2023-05-10T03:43:21;1.03;;;0.93;;
23123;SDS011;11731;48.592;8.858;2023-05-10T03:45:42;1.70;;;1.10;;
23123;SDS011;11731;48.592;8.858;2023-05-10T03:48:09;1.07;;;1.07;;
23123;SDS011;11731;48.592;8.858;2023-05-10T03:50:45;3.10;;;1.27;;
23123;SDS011;11731;48.592;8.858;2023-05-10T03:53:41;1.90;;;0.97;;
23123;SDS011;11731;48.592;8.858;2023-05-10T03:56:07;1.10;;;1.00;;
23123;SDS011;11731;48.592;8.858;2023-05-10T03:59:02;3.47;;;1.17;;
23123;SDS011;11731;48.592;8.858;2023-05-10T04:01:33;1.20;;;1.10;;
23123;SDS011;11731;48.592;8.858;2023-05-10T04:04:00;1.30;;;1.20;;
23123;SDS011;11731;48.592;8.858;2023-05-10T04:06:27;1.30;;;1.20;;
23123;SDS011;11731;48.592;8.858;2023-05-10T04:08:54;1.03;;;0.93;;
23123;SDS011;11731;48.592;8.858;2023-05-10T04:11:24;1.30;;;1.20;;
23123;SDS011;11731;48.592;8.858;2023-05-10T04:14:19;1.47;;;1.17;;
23123;SDS011;11731;48.592;8.858;2023-05-10T04:16:48;1.80;;;1.20;;
23123;SDS011;11731;48.592;8.858;2023-05-10T04:19:15;2.27;;;1.23;;
23123;SDS011;11731;48.592;8.858;2023-05-10T04:21:42;2.07;;;1.10;;
23123;SDS011;11731;48.592;8.858;2023-05-10T04:24:09;1.13;;;1.03;;
23123;SDS011;11731;48.592;8.858;2023-05-10T04:26:35;1.53;;;1.23;;
23123;SDS011;11731;48.592;8.858;2023-05-10T04:29:08;1.33;;;1.30;;
23123;SDS011;11731;48.592;8.858;2023-05-10T04:34:54;1.63;;;1.53;;
23123;SDS011;11731;48.592;8.858;2023-05-10T04:39:56;1.63;;;1.27;;
23123;SDS011;11731;48.592;8.858;2023-05-10T04:42:24;2.60;;;1.20;;
23123;SDS011;11731;48.592;8.858;2023-05-10T04:44:51;2.90;;;1.20;;
23123;SDS011;11731;48.592;8.858;2023-05-10T04:47:18;1.00;;;1.00;;
23123;SDS011;11731;48.592;8.858;2023-05-10T04:49:45;1.20;;;1.10;;
23123;SDS011;11731;48.592;8.858;2023-05-10T04:52:13;2.97;;;1.70;;
23123;SDS011;11731;48.592;8.858;2023-05-10T04:55:12;1.90;;;1.10;;
23123;SDS011;11731;48.592;8.858;2023-05-10T05:01:09;2.40;;;2.20;;
23123;SDS011;11731;48.592;8.858;2023-05-10T05:03:36;1.20;;;1.10;;
23123;SDS011;11731;48.592;8.858;2023-05-10T05:06:16;1.20;;;1.10;;
23123;SDS011;11731;48.592;8.858;2023-05-10T05:11:43;4.80;;;1.53;;
23123;SDS011;11731;48.592;8.858;2023-05-10T05:14:10;3.27;;;1.93;;
23123;SDS011;11731;48.592;8.858;2023-05-10T05:16:43;3.57;;;1.80;;
23123;SDS011;11731;48.592;8.858;2023-05-10T05:19:10;4.83;;;2.00;;
23123;SDS011;11731;48.592;8.858;2023-05-10T05:21:41;2.93;;;1.90;;
23123;SDS011;11731;48.592;8.858;2023-05-10T05:24:24;4.40;;;2.20;;
23123;SDS011;11731;48.592;8.858;2023-05-10T05:26:52;3.20;;;1.90;;
23123;SDS011;11731;48.592;8.858;2023-05-10T05:29:19;3.30;;;2.10;;
23123;SDS011;11731;48.592;8.858;2023-05-10T05:31:46;2.47;;;1.57;;
23123;SDS011;11731;48.592;8.858;2023-05-10T05:34:13;5.10;;;1.50;;
23123;SDS011;11731;48.592;8.858;2023-05-10T05:36:40;2.83;;;1.70;;
23123;SDS011;11731;48.592;8.858;2023-05-10T05:39:07;1.27;;;1.17;;
23123;SDS011;11731;48.592;8.858;2023-05-10T05:41:35;2.43;;;1.40;;
23123;SDS011;11731;48.592;8.858;2023-05-10T05:44:03;2.13;;;1.80;;
23123;SDS011;11731;48.592;8.858;2023-05-10T05:46:30;2.50;;;1.33;;
23123;SDS011;11731;48.592;8.858;2023-05-10T05:49:11;2.00;;;1.60;;
23123;SDS011;11731;48.592;8.858;2023-05-10T05:51:38;1.50;;;1.30;;
23123;SDS011;11731;48.592;8.858;2023-05-10T05:54:07;2.03;;;1.43;;
23123;SDS011;11731;48.592;8.858;2023-05-10T05:56:34;4.13;;;1.47;;
23123;SDS011;11731;48.592;8.858;2023-05-10T05:59:05;2.80;;;1.37;;
23123;SDS011;11731;48.592;8.858;2023-05-10T06:01:32;1.40;;;1.10;;
23123;SDS011;11731;48.592;8.858;2023-05-10T06:03:58;1.70;;;1.07;;
23123;SDS011;11731;48.592;8.858;2023-05-10T06:06:25;1.60;;;1.30;;
23123;SDS011;11731;48.592;8.858;2023-05-10T06:08:53;1.37;;;1.27;;
23123;SDS011;11731;48.592;8.858;2023-05-10T06:20:40;1.30;;;1.20;;
23123;SDS011;11731;48.592;8.858;2023-05-10T06:23:07;2.03;;;1.20;;
23123;SDS011;11731;48.592;8.858;2023-05-10T06:25:40;1.90;;;1.40;;
23123;SDS011;11731;48.592;8.858;2023-05-10T06:28:07;1.17;;;1.07;;
23123;SDS011;11731;48.592;8.858;2023-05-10T06:30:35;2.37;;;1.23;;
23123;SDS011;11731;48.592;8.858;2023-05-10T06:33:02;1.40;;;1.30;;
23123;SDS011;11731;48.592;8.858;2023-05-10T06:35:36;1.23;;;1.13;;
23123;SDS011;11731;48.592;8.858;2023-05-10T06:38:05;1.37;;;1.27;;
23123;SDS011;11731;48.592;8.858;2023-05-10T06:40:34;1.60;;;1.40;;
23123;SDS011;11731;48.592;8.858;2023-05-10T06:43:01;2.40;;;0.93;;
23123;SDS011;11731;48.592;8.858;2023-05-10T06:45:28;2.03;;;1.20;;
23123;SDS011;11731;48.592;8.858;2023-05-10T06:47:54;1.47;;;1.13;;
23123;SDS011;11731;48.592;8.858;2023-05-10T06:50:21;1.60;;;1.20;;
23123;SDS011;11731;48.592;8.858;2023-05-10T06:52:48;1.40;;;1.30;;
23123;SDS011;11731;48.592;8.858;2023-05-10T06:55:16;1.00;;;0.90;;
23123;SDS011;11731;48.592;8.858;2023-05-10T06:57:43;1.50;;;1.00;;
23123;SDS011;11731;48.592;8.858;2023-05-10T07:00:10;0.80;;;0.80;;
23123;SDS011;11731;48.592;8.858;2023-05-10T07:02:38;1.10;;;1.00;;
23123;SDS011;11731;48.592;8.858;2023-05-10T07:05:05;1.70;;;0.90;;
23123;SDS011;11731;48.592;8.858;2023-05-10T07:07:32;0.67;;;0.67;;
23123;SDS011;11731;48.592;8.858;2023-05-10T07:09:59;1.37;;;1.00;;
23123;SDS011;11731;48.592;8.858;2023-05-10T07:12:27;0.83;;;0.73;;
23123;SDS011;11731;48.592;8.858;2023-05-10T07:14:54;1.13;;;0.73;;
23123;SDS011;11731;48.592;8.858;2023-05-10T07:19:57;0.50;;;0.50;;
23123;SDS011;11731;48.592;8.858;2023-05-10T07:21:24;0.87;;;0.60;;
23123;SDS011;11731;48.592;8.858;2023-05-10T07:24:12;4.20;;;1.10;;
23123;SDS011;11731;48.592;8.858;2023-05-10T07:26:53;1.00;;;0.90;;
23123;SDS011;11731;48.592;8.858;2023-05-10T07:32:28;2.13;;;1.17;;
23123;SDS011;11731;48.592;8.858;2023-05-10T07:34:55;2.37;;;1.40;;
23123;SDS011;11731;48.592;8.858;2023-05-10T07:37:38;3.80;;;1.20;;
23123;SDS011;11731;48.592;8.858;2023-05-10T07:40:06;0.83;;;0.57;;
23123;SDS011;11731;48.592;8.858;2023-05-10T07:42:33;1.83;;;0.70;;
23123;SDS011;11731;48.592;8.858;2023-05-10T07:45:05;0.90;;;0.80;;
23123;SDS011;11731;48.592;8.858;2023-05-10T07:47:35;2.97;;;0.70;;
23123;SDS011;11731;48.592;8.858;2023-05-10T07:50:02;2.33;;;0.70;;
23123;SDS011;11731;48.592;8.858;2023-05-10T07:52:29;0.47;;;0.47;;
23123;SDS011;11731;48.592;8.858;2023-05-10T07:54:56;0.80;;;0.70;;
23123;SDS011;11731;48.592;8.858;2023-05-10T07:57:23;1.20;;;0.70;;
23123;SDS011;11731;48.592;8.858;2023-05-10T07:59:50;1.07;;;0.67;;
23123;SDS011;11731;48.592;8.858;2023-05-10T08:02:18;1.27;;;1.00;;
23123;SDS011;11731;48.592;8.858;2023-05-10T08:04:45;1.70;;;1.13;;
23123;SDS011;11731;48.592;8.858;2023-05-10T08:07:12;0.47;;;0.47;;
23123;SDS011;11731;48.592;8.858;2023-05-10T08:09:39;1.37;;;0.50;;
23123;SDS011;11731;48.592;8.858;2023-05-10T08:12:05;0.47;;;0.37;;
23123;SDS011;11731;48.592;8.858;2023-05-10T08:14:32;1.27;;;0.70;;
23123;SDS011;11731;48.592;8.858;2023-05-10T08:17:01;0.37;;;0.37;;
23123;SDS011;11731;48.592;8.858;2023-05-10T08:19:29;0.43;;;0.43;;
23123;SDS011;11731;48.592;8.858;2023-05-10T08:21:57;0.50;;;0.40;;
23123;SDS011;11731;48.592;8.858;2023-05-10T08:24:24;0.30;;;0.30;;
23123;SDS011;11731;48.592;8.858;2023-05-10T08:26:53;0.50;;;0.50;;
23123;SDS011;11731;48.592;8.858;2023-05-10T08:37:10;0.40;;;0.40;;
23123;SDS011;11731;48.592;8.858;2023-05-10T08:39:38;0.30;;;0.30;;
23123;SDS011;11731;48.592;8.858;2023-05-10T08:42:13;0.73;;;0.40;;
23123;SDS011;11731;48.592;8.858;2023-05-10T08:44:45;0.30;;;0.30;;
23123;SDS011;11731;48.592;8.858;2023-05-10T08:49:45;2.40;;;0.30;;
23123;SDS011;11731;48.592;8.858;2023-05-10T08:52:17;1.43;;;0.40;;
23123;SDS011;11731;48.592;8.858;2023-05-10T08:54:44;0.97;;;0.60;;
23123;SDS011;11731;48.592;8.858;2023-05-10T08:57:12;0.87;;;0.43;;
23123;SDS011;11731;48.592;8.858;2023-05-10T08:59:39;0.43;;;0.40;;
23123;SDS011;11731;48.592;8.858;2023-05-10T09:02:06;0.50;;;0.50;;
23123;SDS011;11731;48.592;8.858;2023-05-10T09:04:36;1.40;;;0.40;;
23123;SDS011;11731;48.592;8.858;2023-05-10T09:07:03;1.17;;;0.30;;
23123;SDS011;11731;48.592;8.858;2023-05-10T09:09:31;0.97;;;0.40;;
23123;SDS011;11731;48.592;8.858;2023-05-10T09:11:59;0.57;;;0.40;;
23123;SDS011;11731;48.592;8.858;2023-05-10T09:14:26;0.33;;;0.30;;
23123;SDS011;11731;48.592;8.858;2023-05-10T09:16:53;4.73;;;0.60;;
23123;SDS011;11731;48.592;8.858;2023-05-10T09:19:21;0.40;;;0.40;;
23123;SDS011;11731;48.592;8.858;2023-05-10T09:21:48;0.77;;;0.30;;
23123;SDS011;11731;48.592;8.858;2023-05-10T09:24:15;0.30;;;0.30;;
23123;SDS011;11731;48.592;8.858;2023-05-10T09:26:46;0.90;;;0.40;;
23123;SDS011;11731;48.592;8.858;2023-05-10T09:29:14;0.77;;;0.37;;
23123;SDS011;11731;48.592;8.858;2023-05-10T09:31:45;0.40;;;0.40;;
23123;SDS011;11731;48.592;8.858;2023-05-10T09:34:16;0.40;;;0.40;;
23123;SDS011;11731;48.592;8.858;2023-05-10T09:36:54;0.53;;;0.40;;
23123;SDS011;11731;48.592;8.858;2023-05-10T09:39:29;1.20;;;0.40;;
23123;SDS011;11731;48.592;8.858;2023-05-10T09:41:59;0.27;;;0.27;;
23123;SDS011;11731;48.592;8.858;2023-05-10T09:44:30;0.40;;;0.40;;
23123;SDS011;11731;48.592;8.858;2023-05-10T09:46:57;0.30;;;0.30;;
23123;SDS011;11731;48.592;8.858;2023-05-10T09:49:24;0.43;;;0.43;;
23123;SDS011;11731;48.592;8.858;2023-05-10T09:51:59;0.57;;;0.50;;
23123;SDS011;11731;48.592;8.858;2023-05-10T09:54:27;0.37;;;0.37;;
23123;SDS011;11731;48.592;8.858;2023-05-10T09:56:54;0.30;;;0.30;;
23123;SDS011;11731;48.592;8.858;2023-05-10T09:59:24;0.33;;;0.33;;
23123;SDS011;11731;48.592;8.858;2023-05-10T10:01:51;0.60;;;0.50;;
23123;SDS011;11731;48.592;8.858;2023-05-10T10:04:19;1.80;;;0.60;;
23123;SDS011;11731;48.592;8.858;2023-05-10T10:06:47;0.53;;;0.40;;
23123;SDS011;11731;48.592;8.858;2023-05-10T10:09:24;1.50;;;0.43;;
23123;SDS011;11731;48.592;8.858;2023-05-10T10:11:52;0.87;;;0.83;;
23123;SDS011;11731;48.592;8.858;2023-05-10T10:14:22;0.50;;;0.50;;
23123;SDS011;11731;48.592;8.858;2023-05-10T10:16:50;1.13;;;0.60;;
23123;SDS011;11731;48.592;8.858;2023-05-10T10:19:18;1.20;;;0.70;;
23123;SDS011;11731;48.592;8.858;2023-05-10T10:21:46;0.73;;;0.60;;
23123;SDS011;11731;48.592;8.858;2023-05-10T10:24:13;0.60;;;0.60;;
23123;SDS011;11731;48.592;8.858;2023-05-10T10:26:40;1.93;;;0.60;;
23123;SDS011;11731;48.592;8.858;2023-05-10T10:29:11;0.40;;;0.40;;
23123;SDS011;11731;48.592;8.858;2023-05-10T10:31:49;0.37;;;0.37;;
23123;SDS011;11731;48.592;8.858;2023-05-10T10:34:25;0.50;;;0.40;;
23123;SDS011;11731;48.592;8.858;2023-05-10T10:36:54;0.33;;;0.30;;
23123;SDS011;11731;48.592;8.858;2023-05-10T10:39:22;0.53;;;0.40;;
23123;SDS011;11731;48.592;8.858;2023-05-10T10:41:51;0.67;;;0.67;;
23123;SDS011;11731;48.592;8.858;2023-05-10T10:44:23;8.43;;;0.50;;
23123;SDS011;11731;48.592;8.858;2023-05-10T10:47:01;1.10;;;0.50;;
23123;SDS011;11731;48.592;8.858;2023-05-10T10:49:50;0.50;;;0.50;;
23123;SDS011;11731;48.592;8.858;2023-05-10T10:52:21;0.70;;;0.47;;
23123;SDS011;11731;48.592;8.858;2023-05-10T10:54:53;1.00;;;0.70;;
23123;SDS011;11731;48.592;8.858;2023-05-10T10:57:25;0.30;;;0.30;;
23123;SDS011;11731;48.592;8.858;2023-05-10T10:59:54;0.87;;;0.60;;
23123;SDS011;11731;48.592;8.858;2023-05-10T11:02:46;1.47;;;0.50;;
23123;SDS011;11731;48.592;8.858;2023-05-10T11:08:07;0.90;;;0.50;;
23123;SDS011;11731;48.592;8.858;2023-05-10T11:10:35;1.27;;;0.57;;
23123;SDS011;11731;48.592;8.858;2023-05-10T11:13:03;1.30;;;0.60;;
23123;SDS011;11731;48.592;8.858;2023-05-10T11:15:30;0.93;;;0.63;;
23123;SDS011;11731;48.592;8.858;2023-05-10T11:17:59;0.97;;;0.60;;
23123;SDS011;11731;48.592;8.858;2023-05-10T11:20:42;0.67;;;0.50;;
23123;SDS011;11731;48.592;8.858;2023-05-10T11:23:11;0.57;;;0.50;;
23123;SDS011;11731;48.592;8.858;2023-05-10T11:25:42;0.57;;;0.57;;
23123;SDS011;11731;48.592;8.858;2023-05-10T11:28:10;3.57;;;0.90;;
23123;SDS011;11731;48.592;8.858;2023-05-10T11:30:37;0.70;;;0.70;;
23123;SDS011;11731;48.592;8.858;2023-05-10T11:33:06;2.10;;;1.00;;
23123;SDS011;11731;48.592;8.858;2023-05-10T11:35:37;0.93;;;0.70;;
23123;SDS011;11731;48.592;8.858;2023-05-10T11:38:05;2.20;;;0.80;;
23123;SDS011;11731;48.592;8.858;2023-05-10T11:40:33;1.97;;;0.97;;
23123;SDS011;11731;48.592;8.858;2023-05-10T11:43:00;1.50;;;0.90;;
23123;SDS011;11731;48.592;8.858;2023-05-10T11:45:27;0.67;;;0.67;;
23123;SDS011;11731;48.592;8.858;2023-05-10T11:47:54;1.47;;;0.70;;
23123;SDS011;11731;48.592;8.858;2023-05-10T11:50:22;1.60;;;1.03;;
23123;SDS011;11731;48.592;8.858;2023-05-10T11:52:51;1.67;;;0.90;;
23123;SDS011;11731;48.592;8.858;2023-05-10T11:55:18;1.60;;;0.83;;
23123;SDS011;11731;48.592;8.858;2023-05-10T11:57:45;2.10;;;0.80;;
23123;SDS011;11731;48.592;8.858;2023-05-10T12:00:12;0.40;;;0.40;;
23123;SDS011;11731;48.592;8.858;2023-05-10T12:02:39;1.03;;;0.50;;
23123;SDS011;11731;48.592;8.858;2023-05-10T12:05:07;1.50;;;0.70;;
23123;SDS011;11731;48.592;8.858;2023-05-10T12:07:36;2.87;;;0.80;;
23123;SDS011;11731;48.592;8.858;2023-05-10T12:10:06;3.00;;;0.77;;
23123;SDS011;11731;48.592;8.858;2023-05-10T12:12:37;2.47;;;0.77;;
23123;SDS011;11731;48.592;8.858;2023-05-10T12:15:07;1.37;;;0.70;;
23123;SDS011;11731;48.592;8.858;2023-05-10T12:17:37;0.83;;;0.70;;
23123;SDS011;11731;48.592;8.858;2023-05-10T12:20:14;1.60;;;1.03;;
23123;SDS011;11731;48.592;8.858;2023-05-10T12:22:50;2.73;;;0.80;;
23123;SDS011;11731;48.592;8.858;2023-05-10T12:25:18;2.37;;;0.70;;
23123;SDS011;11731;48.592;8.858;2023-05-10T12:27:50;1.60;;;0.73;;
23123;SDS011;11731;48.592;8.858;2023-05-10T12:30:21;1.33;;;0.60;;
23123;SDS011;11731;48.592;8.858;2023-05-10T12:32:49;2.20;;;1.00;;
23123;SDS011;11731;48.592;8.858;2023-05-10T12:35:16;3.90;;;0.70;;
23123;SDS011;11731;48.592;8.858;2023-05-10T12:37:45;1.57;;;0.60;;
23123;SDS011;11731;48.592;8.858;2023-05-10T12:40:14;0.77;;;0.70;;
23123;SDS011;11731;48.592;8.858;2023-05-10T12:42:41;4.30;;;1.13;;
23123;SDS011;11731;48.592;8.858;2023-05-10T12:45:10;2.37;;;0.70;;
23123;SDS011;11731;48.592;8.858;2023-05-10T12:47:37;0.83;;;0.60;;
23123;SDS011;11731;48.592;8.858;2023-05-10T12:50:05;0.70;;;0.60;;
23123;SDS011;11731;48.592;8.858;2023-05-10T12:52:32;1.67;;;0.80;;
23123;SDS011;11731;48.592;8.858;2023-05-10T12:54:59;0.70;;;0.70;;
23123;SDS011;11731;48.592;8.858;2023-05-10T12:57:28;1.27;;;0.80;;
23123;SDS011;11731;48.592;8.858;2023-05-10T12:59:55;4.87;;;0.70;;
23123;SDS011;11731;48.592;8.858;2023-05-10T13:02:22;0.60;;;0.60;;
23123;SDS011;11731;48.592;8.858;2023-05-10T13:04:49;2.87;;;0.73;;
23123;SDS011;11731;48.592;8.858;2023-05-10T13:07:16;1.23;;;0.80;;
23123;SDS011;11731;48.592;8.858;2023-05-10T13:09:46;1.47;;;0.73;;
23123;SDS011;11731;48.592;8.858;2023-05-10T13:12:13;0.87;;;0.60;;
23123;SDS011;11731;48.592;8.858;2023-05-10T13:14:41;1.37;;;0.87;;
23123;SDS011;11731;48.592;8.858;2023-05-10T13:17:08;1.57;;;0.73;;
23123;SDS011;11731;48.592;8.858;2023-05-10T13:19:35;2.20;;;0.87;;
23123;SDS011;11731;48.592;8.858;2023-05-10T13:22:02;3.03;;;0.87;;
23123;SDS011;11731;48.592;8.858;2023-05-10T13:24:29;0.87;;;0.70;;
23123;SDS011;11731;48.592;8.858;2023-05-10T13:26:56;1.00;;;0.70;;
23123;SDS011;11731;48.592;8.858;2023-05-10T13:29:23;3.50;;;0.93;;
23123;SDS011;11731;48.592;8.858;2023-05-10T13:31:51;1.60;;;0.63;;
23123;SDS011;11731;48.592;8.858;2023-05-10T13:34:18;2.63;;;1.57;;
23123;SDS011;11731;48.592;8.858;2023-05-10T13:36:46;1.20;;;0.63;;
23123;SDS011;11731;48.592;8.858;2023-05-10T13:39:13;0.60;;;0.60;;
23123;SDS011;11731;48.592;8.858;2023-05-10T13:41:40;4.20;;;0.80;;
23123;SDS011;11731;48.592;8.858;2023-05-10T13:44:07;2.20;;;0.73;;
23123;SDS011;11731;48.592;8.858;2023-05-10T13:46:34;3.57;;;1.00;;
23123;SDS011;11731;48.592;8.858;2023-05-10T13:49:02;1.83;;;0.60;;
23123;SDS011;11731;48.592;8.858;2023-05-10T13:51:29;1.07;;;0.60;;
23123;SDS011;11731;48.592;8.858;2023-05-10T13:53:57;1.03;;;0.60;;
23123;SDS011;11731;48.592;8.858;2023-05-10T13:56:24;2.17;;;0.90;;
23123;SDS011;11731;48.592;8.858;2023-05-10T13:58:51;1.27;;;0.63;;
23123;SDS011;11731;48.592;8.858;2023-05-10T14:01:17;7.03;;;0.80;;
23123;SDS011;11731;48.592;8.858;2023-05-10T14:03:44;1.63;;;0.70;;
23123;SDS011;11731;48.592;8.858;2023-05-10T14:06:13;0.90;;;0.70;;
23123;SDS011;11731;48.592;8.858;2023-05-10T14:08:40;2.27;;;0.70;;
23123;SDS011;11731;48.592;8.858;2023-05-10T14:11:07;0.87;;;0.70;;
23123;SDS011;11731;48.592;8.858;2023-05-10T14:13:34;0.60;;;0.60;;
23123;SDS011;11731;48.592;8.858;2023-05-10T14:16:01;1.40;;;0.77;;
23123;SDS011;11731;48.592;8.858;2023-05-10T14:18:28;2.50;;;0.80;;
23123;SDS011;11731;48.592;8.858;2023-05-10T14:20:55;2.93;;;0.50;;
23123;SDS011;11731;48.592;8.858;2023-05-10T14:23:23;0.60;;;0.50;;
23123;SDS011;11731;48.592;8.858;2023-05-10T14:25:50;0.87;;;0.80;;
23123;SDS011;11731;48.592;8.858;2023-05-10T14:28:17;0.70;;;0.70;;
23123;SDS011;11731;48.592;8.858;2023-05-10T14:30:45;1.50;;;0.70;;
23123;SDS011;11731;48.592;8.858;2023-05-10T14:33:12;1.43;;;0.73;;
23123;SDS011;11731;48.592;8.858;2023-05-10T14:35:39;0.60;;;0.60;;
23123;SDS011;11731;48.592;8.858;2023-05-10T14:38:06;3.70;;;0.73;;
23123;SDS011;11731;48.592;8.858;2023-05-10T14:40:34;1.57;;;0.70;;
23123;SDS011;11731;48.592;8.858;2023-05-10T14:43:01;1.13;;;0.80;;
23123;SDS011;11731;48.592;8.858;2023-05-10T14:45:28;1.00;;;0.50;;
23123;SDS011;11731;48.592;8.858;2023-05-10T14:47:56;1.03;;;0.43;;
23123;SDS011;11731;48.592;8.858;2023-05-10T14:50:24;2.07;;;0.67;;
23123;SDS011;11731;48.592;8.858;2023-05-10T14:52:50;0.40;;;0.40;;
23123;SDS011;11731;48.592;8.858;2023-05-10T14:55:17;1.57;;;0.63;;
23123;SDS011;11731;48.592;8.858;2023-05-10T14:57:46;2.10;;;0.60;;
23123;SDS011;11731;48.592;8.858;2023-05-10T15:00:15;1.23;;;0.50;;
23123;SDS011;11731;48.592;8.858;2023-05-10T15:02:44;1.67;;;0.63;;
23123;SDS011;11731;48.592;8.858;2023-05-10T15:05:11;1.80;;;0.70;;
23123;SDS011;11731;48.592;8.858;2023-05-10T15:07:38;1.70;;;0.60;;
23123;SDS011;11731;48.592;8.858;2023-05-10T15:10:05;0.83;;;0.50;;
23123;SDS011;11731;48.592;8.858;2023-05-10T15:12:33;0.57;;;0.57;;
23123;SDS011;11731;48.592;8.858;2023-05-10T15:15:01;1.07;;;0.60;;
23123;SDS011;11731;48.592;8.858;2023-05-10T15:17:28;0.60;;;0.60;;
23123;SDS011;11731;48.592;8.858;2023-05-10T15:19:55;0.70;;;0.57;;
23123;SDS011;11731;48.592;8.858;2023-05-10T15:22:22;2.73;;;0.60;;
23123;SDS011;11731;48.592;8.858;2023-05-10T15:24:49;0.40;;;0.40;;
23123;SDS011;11731;48.592;8.858;2023-05-10T15:27:16;0.67;;;0.63;;
23123;SDS011;11731;48.592;8.858;2023-05-10T15:29:42;2.47;;;0.70;;
23123;SDS011;11731;48.592;8.858;2023-05-10T15:32:11;0.90;;;0.70;;
23123;SDS011;11731;48.592;8.858;2023-05-10T15:34:38;0.30;;;0.30;;
23123;SDS011;11731;48.592;8.858;2023-05-10T15:37:04;1.23;;;0.50;;
23123;SDS011;11731;48.592;8.858;2023-05-10T15:39:31;2.40;;;0.60;;
23123;SDS011;11731;48.592;8.858;2023-05-10T15:41:58;0.53;;;0.50;;
23123;SDS011;11731;48.592;8.858;2023-05-10T15:44:26;1.10;;;0.60;;
23123;SDS011;11731;48.592;8.858;2023-05-10T15:46:53;0.40;;;0.40;;
23123;SDS011;11731;48.592;8.858;2023-05-10T15:49:21;1.67;;;0.60;;
23123;SDS011;11731;48.592;8.858;2023-05-10T15:51:48;1.00;;;0.53;;
23123;SDS011;11731;48.592;8.858;2023-05-10T15:54:15;0.40;;;0.40;;
23123;SDS011;11731;48.592;8.858;2023-05-10T15:56:42;0.77;;;0.77;;
23123;SDS011;11731;48.592;8.858;2023-05-10T15:59:08;1.03;;;0.57;;
23123;SDS011;11731;48.592;8.858;2023-05-10T16:01:35;1.97;;;0.50;;
23123;SDS011;11731;48.592;8.858;2023-05-10T16:04:02;1.80;;;0.60;;
23123;SDS011;11731;48.592;8.858;2023-05-10T16:06:31;1.60;;;0.80;;
23123;SDS011;11731;48.592;8.858;2023-05-10T16:08:58;1.93;;;0.70;;
23123;SDS011;11731;48.592;8.858;2023-05-10T16:11:25;1.97;;;0.70;;